Time;durP1;ratioP1;P1;durP2;ratioP2;P2;SDS_P1;SDS_P2;PMS_P1;PMS_P2;Temp;Humidity;BMP_temperature;BMP_pressure;BME280_temperature;BME280_humidity;BME280_pressure;Samples;Min_cycle;Max_cycle;Signal;HPM_P1;HPM_P2
2022/01/05 00:00:15;;;;;;;;;;;;;;;3.54;100.00;97348.80;1670866;84;20499;-69
2022/01/05 00:02:41;;;;;;;;;;;;;;;3.59;100.00;97352.78;1655112;85;20160;-67
2022/01/05 00:05:08;;;;;;;;;;;;;;;3.63;100.00;97343.79;1673749;84;20126;-66
2022/01/05 00:07:35;;;;;;;;;;;;;;;3.68;100.00;97341.68;1669688;84;21174;-67
2022/01/05 00:10:06;;;;;;;;;;;;;;;3.74;100.00;97338.75;1664411;84;20095;-65
2022/01/05 00:12:32;;;;;;;;;;;;;;;3.81;100.00;97343.81;1675026;84;20116;-66
2022/01/05 00:15:00;;;;;;;;;;;;;;;3.86;100.00;97330.54;1676151;85;20565;-65
2022/01/05 00:17:27;;;;;;;;;;;;;;;3.90;100.00;97335.59;1670965;84;20143;-64
2022/01/05 00:19:54;;;;;;;;;;;;;;;3.96;100.00;97333.73;1667360;85;21162;-65
2022/01/05 00:22:21;;;;;;;;;;;;;;;4.01;100.00;97340.37;1661409;85;20900;-65
2022/01/05 00:24:47;;;;;;;;;;;;;;;4.06;100.00;97335.84;1681238;84;20128;-66
2022/01/05 00:27:16;;;;;;;;;;;;;;;4.11;100.00;97331.61;1670710;85;20520;-65
2022/01/05 00:29:42;;;;;;;;;;;;;;;4.14;100.00;97328.41;1673088;85;20144;-65
2022/01/05 00:32:09;;;;;;;;;;;;;;;4.19;100.00;97325.25;1669612;85;21227;-67
2022/01/05 00:34:36;;;;;;;;;;;;;;;4.23;100.00;97335.58;1662680;85;20145;-67
2022/01/05 00:37:24;;;;;;;;;;;;;;;4.26;100.00;97332.92;1690193;83;20155;-67
2022/01/05 00:39:53;;;;;;;;;;;;;;;4.29;100.00;97311.16;1634903;87;20166;-68
2022/01/05 00:42:20;;;;;;;;;;;;;;;4.33;100.00;97328.67;1660890;85;20266;-68
2022/01/05 00:44:46;;;;;;;;;;;;;;;4.33;100.00;97324.16;1688859;84;21832;-65
2022/01/05 00:47:12;;;;;;;;;;;;;;;4.34;100.00;97311.16;1682619;84;20154;-65
2022/01/05 00:49:39;;;;;;;;;;;;;;;4.38;100.00;97310.86;1677691;83;20259;-70
2022/01/05 00:52:06;;;;;;;;;;;;;;;4.40;100.00;97302.64;1681631;84;20184;-66
2022/01/05 00:54:33;;;;;;;;;;;;;;;4.46;100.00;97308.22;1684387;83;20446;-67
2022/01/05 00:57:00;;;;;;;;;;;;;;;4.53;100.00;97305.27;1682278;84;21840;-68
2022/01/05 00:59:27;;;;;;;;;;;;;;;4.55;100.00;97304.47;1680845;83;20124;-68
2022/01/05 01:01:54;;;;;;;;;;;;;;;4.57;100.00;97292.50;1677360;83;20457;-67
2022/01/05 01:04:21;;;;;;;;;;;;;;;4.57;100.00;97291.17;1681646;84;20192;-66
2022/01/05 01:06:47;;;;;;;;;;;;;;;4.63;100.00;97290.62;1686432;83;20197;-66
2022/01/05 01:09:14;;;;;;;;;;;;;;;4.66;100.00;97287.45;1679576;83;22377;-68
2022/01/05 01:11:40;;;;;;;;;;;;;;;4.68;100.00;97274.69;1652815;84;20126;-68
2022/01/05 01:14:07;;;;;;;;;;;;;;;4.71;100.00;97283.44;1651568;85;20082;-66
2022/01/05 01:16:33;;;;;;;;;;;;;;;4.76;100.00;97274.66;1652056;85;20194;-69
2022/01/05 01:19:00;;;;;;;;;;;;;;;4.81;100.00;97267.45;1651979;86;20412;-67
2022/01/05 01:21:26;;;;;;;;;;;;;;;4.85;100.00;97257.05;1651973;85;21169;-66
2022/01/05 01:23:55;;;;;;;;;;;;;;;4.89;100.00;97253.58;1652305;86;20472;-68
2022/01/05 01:26:24;;;;;;;;;;;;;;;4.91;100.00;97258.09;1621432;87;20102;-67
2022/01/05 01:28:51;;;;;;;;;;;;;;;4.97;100.00;97262.06;1624831;86;20145;-69
2022/01/05 01:31:17;;;;;;;;;;;;;;;4.98;100.00;97260.47;1622604;86;20117;-65
2022/01/05 01:33:44;;;;;;;;;;;;;;;5.01;100.00;97258.59;1632477;86;21152;-66
2022/01/05 01:36:10;;;;;;;;;;;;;;;5.03;100.00;97259.11;1631708;87;20124;-67
2022/01/05 01:38:37;;;;;;;;;;;;;;;5.04;100.00;97255.38;1629992;86;20104;-65
2022/01/05 01:41:04;;;;;;;;;;;;;;;5.08;100.00;97259.08;1631497;87;20132;-69
2022/01/05 01:43:31;;;;;;;;;;;;;;;5.12;100.00;97245.52;1632617;87;20207;-67
2022/01/05 01:45:58;;;;;;;;;;;;;;;5.14;100.00;97250.53;1630727;86;21149;-65
2022/01/05 01:48:25;;;;;;;;;;;;;;;5.15;100.00;97242.84;1631578;86;20129;-64
2022/01/05 01:50:51;;;;;;;;;;;;;;;5.19;100.00;97248.39;1678393;85;20097;-65
2022/01/05 01:53:18;;;;;;;;;;;;;;;5.18;100.00;97247.59;1673616;85;20076;-66
2022/01/05 01:55:45;;;;;;;;;;;;;;;5.17;100.00;97234.05;1628883;86;20091;-65
2022/01/05 01:58:11;;;;;;;;;;;;;;;5.15;100.00;97227.67;1624866;88;21229;-67
2022/01/05 02:00:37;;;;;;;;;;;;;;;5.19;100.00;97229.23;1627700;87;20124;-65
2022/01/05 02:03:04;;;;;;;;;;;;;;;5.20;100.00;97230.84;1629712;86;20450;-66
2022/01/05 02:05:31;;;;;;;;;;;;;;;5.21;100.00;97231.63;1627126;86;20128;-66
2022/01/05 02:07:58;;;;;;;;;;;;;;;5.20;100.00;97224.19;1629581;86;20459;-67
2022/01/05 02:10:24;;;;;;;;;;;;;;;5.23;100.00;97219.64;1625506;87;21263;-67
2022/01/05 02:12:51;;;;;;;;;;;;;;;5.29;100.00;97222.54;1627169;87;20459;-65
2022/01/05 02:15:17;;;;;;;;;;;;;;;5.34;100.00;97222.50;1629269;87;20092;-67
2022/01/05 02:17:57;;;;;;;;;;;;;;;5.34;100.00;97221.17;1628549;87;20092;-66
2022/01/05 02:20:22;;;;;;;;;;;;;;;5.39;100.00;97221.67;1626508;86;20517;-67
2022/01/05 02:22:50;;;;;;;;;;;;;;;5.39;100.00;97221.67;1628727;87;21841;-66
2022/01/05 02:25:17;;;;;;;;;;;;;;;5.40;100.00;97216.61;1627946;88;20092;-64
2022/01/05 02:27:44;;;;;;;;;;;;;;;5.45;100.00;97217.11;1625109;87;20158;-67
2022/01/05 02:30:12;;;;;;;;;;;;;;;5.47;100.00;97217.63;1627821;86;20149;-67
2022/01/05 02:32:39;;;;;;;;;;;;;;;5.48;100.00;97219.20;1625951;88;20100;-67
2022/01/05 02:35:06;;;;;;;;;;;;;;;5.49;100.00;97229.58;1625979;88;21144;-62
2022/01/05 02:37:42;;;;;;;;;;;;;;;5.50;100.00;97229.04;1628558;87;20433;-68
2022/01/05 02:40:15;;;;;;;;;;;;;;;5.51;100.00;97222.63;1626914;87;20108;-69
2022/01/05 02:42:41;;;;;;;;;;;;;;;5.51;100.00;97224.78;1628458;88;20438;-68
2022/01/05 02:45:10;;;;;;;;;;;;;;;5.57;100.00;97222.88;1625800;88;20498;-66
2022/01/05 02:47:37;;;;;;;;;;;;;;;5.60;100.00;97216.98;1630379;87;21157;-66
2022/01/05 02:50:05;;;;;;;;;;;;;;;5.64;100.00;97211.91;1627349;88;20148;-67
2022/01/05 02:52:32;;;;;;;;;;;;;;;5.68;100.00;97212.38;1627087;88;20152;-66
2022/01/05 02:54:59;;;;;;;;;;;;;;;5.67;100.00;97218.79;1626917;88;20092;-67
2022/01/05 02:57:25;;;;;;;;;;;;;;;5.71;100.00;97217.72;1627124;88;20151;-70
2022/01/05 02:59:54;;;;;;;;;;;;;;;5.70;100.00;97211.58;1622028;88;21220;-68
2022/01/05 03:02:21;;;;;;;;;;;;;;;5.67;100.00;97205.48;1628993;86;20225;-66
2022/01/05 03:04:47;;;;;;;;;;;;;;;5.69;100.00;97213.98;1630848;88;20116;-67
2022/01/05 03:07:16;;;;;;;;;;;;;;;5.70;100.00;97200.14;1628941;88;20212;-65
2022/01/05 03:09:43;;;;;;;;;;;;;;;5.72;100.00;97206.77;1628435;86;20104;-69
2022/01/05 03:12:11;;;;;;;;;;;;;;;5.72;100.00;97194.00;1628067;88;21165;-65
2022/01/05 03:14:37;;;;;;;;;;;;;;;5.75;100.00;97214.73;1626249;87;20116;-67
2022/01/05 03:17:04;;;;;;;;;;;;;;;5.74;100.00;97204.63;1630789;87;20100;-65
2022/01/05 03:19:31;;;;;;;;;;;;;;;5.77;100.00;97205.94;1630086;88;20104;-66
2022/01/05 03:21:57;;;;;;;;;;;;;;;5.78;100.00;97209.66;1626585;88;20109;-66
2022/01/05 03:24:24;;;;;;;;;;;;;;;5.79;100.00;97205.91;1627795;87;21158;-67
2022/01/05 03:26:50;;;;;;;;;;;;;;;5.83;100.00;97211.48;1627074;86;20139;-68
2022/01/05 03:29:16;;;;;;;;;;;;;;;5.80;100.00;97203.49;1628115;88;20120;-66
2022/01/05 03:31:42;;;;;;;;;;;;;;;5.83;100.00;97201.35;1630513;88;20096;-65
2022/01/05 03:34:17;;;;;;;;;;;;;;;5.85;100.00;97205.86;1626436;87;20112;-67
2022/01/05 03:36:39;;;;;;;;;;;;;;;5.85;100.00;97201.33;1629904;86;21221;-67
2022/01/05 03:39:05;;;;;;;;;;;;;;;5.87;100.00;97193.07;1629715;88;20155;-68
2022/01/05 03:41:33;;;;;;;;;;;;;;;5.88;100.00;97202.12;1628105;87;20092;-67
2022/01/05 03:44:00;;;;;;;;;;;;;;;5.90;100.00;97212.47;1628269;88;20116;-67
2022/01/05 03:46:27;;;;;;;;;;;;;;;5.90;100.00;97211.14;1625531;87;20457;-67
2022/01/05 03:48:53;;;;;;;;;;;;;;;5.88;100.00;97203.45;1628504;87;21790;-66
2022/01/05 03:51:21;;;;;;;;;;;;;;;5.93;100.00;97209.27;1627443;88;20215;-66
2022/01/05 03:53:48;;;;;;;;;;;;;;;5.96;100.00;97216.72;1627368;87;20124;-70
2022/01/05 03:56:14;;;;;;;;;;;;;;;5.98;100.00;97207.38;1628796;88;20648;-68
2022/01/05 03:58:41;;;;;;;;;;;;;;;6.03;100.00;97219.03;1628717;86;20112;-67
2022/01/05 04:01:07;;;;;;;;;;;;;;;6.04;100.00;97218.77;1627870;88;21233;-66
2022/01/05 04:03:33;;;;;;;;;;;;;;;6.01;100.00;97222.78;1627761;86;20088;-68
2022/01/05 04:06:00;;;;;;;;;;;;;;;6.04;100.00;97228.63;1628159;87;20128;-65
2022/01/05 04:08:28;;;;;;;;;;;;;;;6.05;100.00;97223.55;1631445;88;20120;-67
2022/01/05 04:10:54;;;;;;;;;;;;;;;6.08;100.00;97217.14;1630296;86;20112;-66
2022/01/05 04:13:21;;;;;;;;;;;;;;;6.07;100.00;97198.77;1624163;87;22372;-69
2022/01/05 04:15:48;;;;;;;;;;;;;;;6.08;100.00;97191.05;1624296;88;20121;-67
2022/01/05 04:18:14;;;;;;;;;;;;;;;6.12;100.00;97206.16;1624537;88;20104;-65
2022/01/05 04:20:41;;;;;;;;;;;;;;;6.14;100.00;97212.00;1624407;87;20156;-67
2022/01/05 04:23:07;;;;;;;;;;;;;;;6.17;100.00;97203.47;1624613;87;20137;-67
2022/01/05 04:25:35;;;;;;;;;;;;;;;6.20;100.00;97203.44;1628037;88;21135;-69
2022/01/05 04:28:03;;;;;;;;;;;;;;;6.19;100.00;97205.83;1628488;86;20092;-68
2022/01/05 04:30:31;;;;;;;;;;;;;;;6.23;100.00;97200.20;1618664;87;20144;-70
2022/01/05 04:32:57;;;;;;;;;;;;;;;6.23;100.00;97189.00;1628581;88;20132;-67
2022/01/05 04:35:48;;;;;;;;;;;;;;;6.26;100.00;97193.52;1628337;86;20151;-66
2022/01/05 04:38:07;;;;;;;;;;;;;;;6.26;100.00;97201.51;1607370;87;20638;-68
2022/01/05 04:40:34;;;;;;;;;;;;;;;6.23;100.00;97199.66;1628153;88;20437;-68
2022/01/05 04:43:00;;;;;;;;;;;;;;;6.18;100.00;97205.59;1629494;88;20121;-70
2022/01/05 04:45:26;;;;;;;;;;;;;;;6.19;100.00;97203.17;1629572;87;20621;-69
2022/01/05 04:47:53;;;;;;;;;;;;;;;6.20;100.00;97212.22;1624942;88;20120;-69
2022/01/05 04:50:20;;;;;;;;;;;;;;;6.20;100.00;97207.44;1626428;86;21198;-70
2022/01/05 04:52:47;;;;;;;;;;;;;;;6.20;100.00;97202.89;1626976;87;20125;-69
2022/01/05 04:55:13;;;;;;;;;;;;;;;6.18;100.00;97209.03;1627618;87;20181;-68
2022/01/05 04:57:40;;;;;;;;;;;;;;;6.20;100.00;97211.44;1627118;87;20096;-68
2022/01/05 05:00:08;;;;;;;;;;;;;;;6.20;100.00;97220.75;1628308;88;20520;-69
2022/01/05 05:02:36;;;;;;;;;;;;;;;6.24;100.00;97221.76;1626644;86;22884;-70
2022/01/05 05:05:04;;;;;;;;;;;;;;;6.29;100.00;97211.59;1627175;87;20502;-70
2022/01/05 05:07:30;;;;;;;;;;;;;;;6.36;100.00;97220.04;1620993;88;20114;-70
2022/01/05 05:09:57;;;;;;;;;;;;;;;6.38;100.00;97237.33;1628292;88;20522;-68
2022/01/05 05:12:23;;;;;;;;;;;;;;;6.44;100.00;97243.39;1627060;88;20100;-68
2022/01/05 05:14:51;;;;;;;;;;;;;;;6.52;100.00;97257.45;1628424;88;21835;-69
2022/01/05 05:17:19;;;;;;;;;;;;;;;6.61;100.00;97258.94;1627432;86;20108;-69
2022/01/05 05:19:46;;;;;;;;;;;;;;;6.65;100.00;97258.09;1627188;88;20141;-71
2022/01/05 05:22:12;;;;;;;;;;;;;;;6.74;100.00;97252.94;1627794;88;20138;-71
2022/01/05 05:24:39;;;;;;;;;;;;;;;6.83;100.00;97249.08;1628528;87;20096;-71
2022/01/05 05:27:06;;;;;;;;;;;;;;;6.90;100.00;97270.08;1627893;88;21073;-68
2022/01/05 05:29:32;;;;;;;;;;;;;;;6.87;100.00;97282.11;1626933;88;20152;-69
2022/01/05 05:31:59;;;;;;;;;;;;;;;6.91;100.00;97284.98;1628523;86;20113;-68
2022/01/05 05:34:26;;;;;;;;;;;;;;;6.96;100.00;97283.62;1625860;88;20430;-69
2022/01/05 05:36:52;;;;;;;;;;;;;;;7.08;100.00;97293.34;1627780;88;20144;-68
2022/01/05 05:39:19;;;;;;;;;;;;;;;7.16;100.00;97290.57;1628683;88;21145;-71
2022/01/05 05:41:45;;;;;;;;;;;;;;;7.14;100.00;97292.73;1629404;86;20203;-68
2022/01/05 05:44:12;;;;;;;;;;;;;;;7.15;100.00;97303.09;1628893;88;20096;-68
2022/01/05 05:46:38;;;;;;;;;;;;;;;7.17;100.00;97300.94;1624923;88;20116;-67
2022/01/05 05:49:05;;;;;;;;;;;;;;;7.19;100.00;97305.45;1633793;88;20132;-68
2022/01/05 05:51:31;;;;;;;;;;;;;;;7.28;100.00;97306.95;1648485;86;21155;-69
2022/01/05 05:53:58;;;;;;;;;;;;;;;7.33;100.00;97311.44;1646195;86;20141;-70
2022/01/05 05:56:25;;;;;;;;;;;;;;;7.33;100.00;97315.44;1631694;88;20477;-67
2022/01/05 05:58:52;;;;;;;;;;;;;;;7.35;100.00;97323.41;1631809;88;20447;-69
2022/01/05 06:01:18;;;;;;;;;;;;;;;7.34;100.00;97319.13;1630434;88;20108;-70
2022/01/05 06:03:44;;;;;;;;;;;;;;;7.33;100.00;97334.91;1628407;88;21153;-69
2022/01/05 06:06:12;;;;;;;;;;;;;;;7.30;100.00;97330.15;1627758;88;20511;-70
2022/01/05 06:08:39;;;;;;;;;;;;;;;7.30;100.00;97347.49;1627461;87;20146;-73
2022/01/05 06:11:07;;;;;;;;;;;;;;;7.31;100.00;97349.06;1626955;88;20085;-69
2022/01/05 06:13:34;;;;;;;;;;;;;;;7.36;100.00;97352.22;1628082;87;20117;-69
2022/01/05 06:16:00;;;;;;;;;;;;;;;7.44;100.00;97340.34;1627213;86;21191;-67
2022/01/05 06:18:27;;;;;;;;;;;;;;;7.51;100.00;97362.14;1627778;87;20180;-69
2022/01/05 06:20:54;;;;;;;;;;;;;;;7.53;100.00;97319.16;1627901;88;20438;-68
2022/01/05 06:23:23;;;;;;;;;;;;;;;7.57;100.00;97372.75;1627736;86;20466;-69
2022/01/05 06:25:49;;;;;;;;;;;;;;;7.54;100.00;97369.33;1628772;88;20125;-69
2022/01/05 06:28:16;;;;;;;;;;;;;;;7.57;100.00;97368.23;1626601;86;20490;-68
2022/01/05 06:30:42;;;;;;;;;;;;;;;7.58;100.00;97375.14;1626154;88;20104;-68
2022/01/05 06:33:08;;;;;;;;;;;;;;;7.61;100.00;97385.80;1625516;88;20176;-69
2022/01/05 06:35:35;;;;;;;;;;;;;;;7.61;100.00;97383.12;1629206;86;20180;-68
2022/01/05 06:38:01;;;;;;;;;;;;;;;7.60;100.00;97397.56;1629098;87;20096;-68
2022/01/05 06:40:31;;;;;;;;;;;;;;;7.66;100.00;97400.41;1627379;86;21183;-70
2022/01/05 06:42:59;;;;;;;;;;;;;;;7.69;100.00;97397.16;1629010;86;20133;-69
2022/01/05 06:45:25;;;;;;;;;;;;;;;7.67;100.00;97412.69;1625686;87;20469;-71
2022/01/05 06:47:52;;;;;;;;;;;;;;;7.69;100.00;97414.51;1626558;88;20415;-71
2022/01/05 06:50:18;;;;;;;;;;;;;;;7.68;100.00;97413.72;1630445;88;20143;-71
2022/01/05 06:52:45;;;;;;;;;;;;;;;7.68;100.00;97407.59;1632013;86;21204;-69
2022/01/05 06:55:11;;;;;;;;;;;;;;;7.68;100.00;97411.05;1631567;88;20096;-70
2022/01/05 06:57:40;;;;;;;;;;;;;;;7.70;100.00;97414.23;1631818;88;20124;-70
2022/01/05 07:00:12;;;;;;;;;;;;;;;7.71;100.00;97416.36;1631725;86;20127;-70
2022/01/05 07:02:39;;;;;;;;;;;;;;;7.72;100.00;97420.09;1631665;88;20149;-71
2022/01/05 07:05:07;;;;;;;;;;;;;;;7.73;100.00;97424.88;1631699;88;21182;-71
2022/01/05 07:07:35;;;;;;;;;;;;;;;7.73;100.00;97433.68;1631708;88;20092;-68
2022/01/05 07:10:05;;;;;;;;;;;;;;;7.72;100.00;97426.77;1631983;88;20434;-71
2022/01/05 07:12:33;;;;;;;;;;;;;;;7.76;100.00;97436.86;1631767;88;20108;-71
2022/01/05 07:14:59;;;;;;;;;;;;;;;7.76;100.00;97440.33;1631738;86;20128;-71
2022/01/05 07:17:26;;;;;;;;;;;;;;;7.76;100.00;97438.98;1631722;86;21166;-70
2022/01/05 07:19:52;;;;;;;;;;;;;;;7.81;100.00;97459.50;1630999;86;20092;-70
2022/01/05 07:22:19;;;;;;;;;;;;;;;7.79;100.00;97456.31;1631465;88;20091;-72
2022/01/05 07:24:46;;;;;;;;;;;;;;;7.77;100.00;97465.18;1655767;86;20133;-69
2022/01/05 07:27:12;;;;;;;;;;;;;;;7.80;100.00;97462.72;1630083;86;20127;-71
2022/01/05 07:29:39;;;;;;;;;;;;;;;7.78;100.00;97470.76;1629222;88;21188;-70
2022/01/05 07:32:06;;;;;;;;;;;;;;;7.78;100.00;97470.22;1627321;87;20206;-70
2022/01/05 07:34:32;;;;;;;;;;;;;;;7.80;100.00;97482.75;1627338;88;20106;-72
2022/01/05 07:36:59;;;;;;;;;;;;;;;7.80;100.00;97484.08;1627253;87;20217;-69
2022/01/05 07:39:26;;;;;;;;;;;;;;;7.80;100.00;97496.09;1623987;86;20161;-70
2022/01/05 07:41:55;;;;;;;;;;;;;;;7.75;100.00;97501.50;1620201;88;22300;-70
2022/01/05 07:44:22;;;;;;;;;;;;;;;7.72;100.00;97510.88;1599277;88;20500;-72
2022/01/05 07:46:48;;;;;;;;;;;;;;;7.66;100.00;97509.33;1626729;88;20140;-71
2022/01/05 07:49:15;;;;;;;;;;;;;;;7.66;100.00;97518.68;1626780;88;20146;-69
2022/01/05 07:51:42;;;;;;;;;;;;;;;7.65;100.00;97517.10;1603556;86;20261;-69
2022/01/05 07:54:09;;;;;;;;;;;;;;;7.64;100.00;97528.88;1630942;86;21178;-70
2022/01/05 07:56:36;;;;;;;;;;;;;;;7.65;100.00;97531.78;1636136;86;20182;-70
2022/01/05 07:59:02;;;;;;;;;;;;;;;7.75;100.00;97536.22;1675328;85;20119;-72
2022/01/05 08:01:29;;;;;;;;;;;;;;;7.82;100.00;97535.89;1674900;85;20684;-70
2022/01/05 08:03:59;;;;;;;;;;;;;;;7.84;100.00;97531.85;1674451;85;20096;-70
2022/01/05 08:06:25;;;;;;;;;;;;;;;7.88;100.00;97540.08;1674694;85;21157;-69
2022/01/05 08:08:52;;;;;;;;;;;;;;;7.85;100.00;97533.42;1675132;85;20450;-70
2022/01/05 08:11:19;;;;;;;;;;;;;;;7.87;100.00;97541.17;1674964;85;20128;-70
2022/01/05 08:13:46;;;;;;;;;;;;;;;7.88;100.00;97534.73;1646804;85;20216;-71
2022/01/05 08:16:15;;;;;;;;;;;;;;;7.92;100.00;97539.22;1656969;85;20455;-70
2022/01/05 08:18:41;;;;;;;;;;;;;;;8.03;100.00;97538.55;1658407;86;21161;-71
2022/01/05 08:21:08;;;;;;;;;;;;;;;8.20;100.00;97538.07;1630373;86;20169;-71
2022/01/05 08:23:36;;;;;;;;;;;;;;;8.70;100.00;97528.34;1627188;88;20110;-70
2022/01/05 08:26:04;;;;;;;;;;;;;;;8.92;100.00;97541.91;1655092;86;20231;-69
2022/01/05 08:28:32;;;;;;;;;;;;;;;9.04;100.00;97532.61;1628676;88;20187;-69
2022/01/05 08:30:59;;;;;;;;;;;;;;;9.04;100.00;97531.27;1627379;88;21162;-71
2022/01/05 08:33:25;;;;;;;;;;;;;;;8.93;100.00;97538.13;1655990;86;20125;-71
2022/01/05 08:36:02;;;;;;;;;;;;;;;8.91;100.00;97539.51;1625131;88;20128;-69
2022/01/05 08:38:29;;;;;;;;;;;;;;;8.92;100.00;97535.77;1621755;86;20207;-69
2022/01/05 08:40:55;;;;;;;;;;;;;;;8.91;100.00;97526.13;1609242;88;20126;-68
2022/01/05 08:43:22;;;;;;;;;;;;;;;9.21;100.00;97546.23;1609013;88;21076;-69
2022/01/05 08:45:48;;;;;;;;;;;;;;;9.60;100.00;97553.05;1608803;88;20198;-68
2022/01/05 08:48:15;;;;;;;;;;;;;;;9.77;100.00;97560.52;1609043;89;20153;-69
2022/01/05 08:50:42;;;;;;;;;;;;;;;10.08;100.00;97568.77;1637390;87;20160;-70
2022/01/05 08:53:08;;;;;;;;;;;;;;;10.43;100.00;97560.55;1626638;87;20098;-70
2022/01/05 08:55:47;;;;;;;;;;;;;;;10.25;100.00;97563.58;1626707;87;21177;-70
2022/01/05 08:58:14;;;;;;;;;;;;;;;9.80;100.00;97566.09;1627041;87;20157;-68
2022/01/05 09:00:40;;;;;;;;;;;;;;;9.56;100.00;97559.56;1626895;88;20094;-72
2022/01/05 09:03:07;;;;;;;;;;;;;;;9.25;100.00;97568.66;1626714;87;20115;-70
2022/01/05 09:05:33;;;;;;;;;;;;;;;9.20;100.00;97569.53;1631377;87;20106;-73
2022/01/05 09:08:00;;;;;;;;;;;;;;;9.06;100.00;97553.19;1663313;86;21948;-72
2022/01/05 09:10:27;;;;;;;;;;;;;;;8.85;100.00;97571.45;1663416;86;20118;-70
2022/01/05 09:12:56;;;;;;;;;;;;;;;8.69;100.00;97573.55;1663530;86;20089;-70
2022/01/05 09:15:22;;;;;;;;;;;;;;;8.57;100.00;97573.97;1663087;86;21976;-69
2022/01/05 09:17:49;;;;;;;;;;;;;;;8.77;100.00;97584.91;1662749;85;20181;-68
2022/01/05 09:20:15;;;;;;;;;;;;;;;9.34;100.00;97584.86;1654043;85;21159;-69
2022/01/05 09:22:42;;;;;;;;;;;;;;;9.71;100.00;97595.98;1655992;86;20287;-68
2022/01/05 09:25:10;;;;;;;;;;;;;;;9.83;100.00;97594.96;1657070;86;20081;-68
2022/01/05 09:27:37;;;;;;;;;;;;;;;9.44;100.00;97586.02;1650689;85;20186;-70
2022/01/05 09:30:05;;;;;;;;;;;;;;;9.19;100.00;97607.33;1650580;85;20126;-68
2022/01/05 09:32:32;;;;;;;;;;;;;;;8.84;100.00;97619.34;1650604;86;21154;-70
2022/01/05 09:34:58;;;;;;;;;;;;;;;9.19;100.00;97617.48;1646603;86;20157;-69
2022/01/05 09:37:35;;;;;;;;;;;;;;;9.69;100.00;97619.59;1617341;86;20209;-72
2022/01/05 09:42:44;;;;;;;;;;;;;;;10.05;100.00;97635.04;1611802;86;20207;-69
2022/01/05 09:45:19;;;;;;;;;;;;;;;10.20;100.00;97632.61;1593383;89;21171;-72
2022/01/05 09:48:12;;;;;;;;;;;;;;;10.03;100.00;97632.64;1607700;86;20234;-69
2022/01/05 09:50:48;;;;;;;;;;;;;;;10.05;100.00;97637.72;1614478;88;20230;-71
2022/01/05 09:53:14;;;;;;;;;;;;;;;10.08;100.00;97639.25;1611484;87;20146;-69
2022/01/05 09:55:43;;;;;;;;;;;;;;;10.41;100.00;97646.42;1643465;85;20114;-72
2022/01/05 09:58:11;;;;;;;;;;;;;;;10.48;100.00;97648.16;1642837;86;21178;-71
2022/01/05 10:00:39;;;;;;;;;;;;;;;10.32;100.00;97642.32;1649715;85;20110;-70
2022/01/05 10:03:07;;;;;;;;;;;;;;;10.56;100.00;97650.16;1660240;86;20207;-70
2022/01/05 10:05:34;;;;;;;;;;;;;;;10.82;100.00;97653.08;1628663;87;20304;-71
2022/01/05 10:08:00;;;;;;;;;;;;;;;10.93;100.00;97661.73;1656059;86;20209;-73
2022/01/05 10:10:26;;;;;;;;;;;;;;;10.85;100.00;97663.23;1656449;86;21730;-68
2022/01/05 10:12:53;;;;;;;;;;;;;;;10.59;100.00;97648.21;1656501;86;20516;-72
2022/01/05 10:15:23;;;;;;;;;;;;;;;10.62;100.00;97644.92;1655907;86;20146;-73
2022/01/05 10:17:50;;;;;;;;;;;;;;;10.38;100.00;97628.26;1655167;86;20543;-70
2022/01/05 10:20:16;;;;;;;;;;;;;;;10.49;100.00;97634.46;1636592;86;20239;-70
2022/01/05 10:22:44;;;;;;;;;;;;;;;10.63;100.00;97629.09;1637104;86;21154;-70
2022/01/05 10:25:20;;;;;;;;;;;;;;;10.87;100.00;97630.16;1656330;86;20459;-71
2022/01/05 10:28:00;;;;;;;;;;;;;;;11.03;100.00;97636.55;1656281;85;20267;-70
2022/01/05 10:30:39;;;;;;;;;;;;;;;11.34;100.00;97634.74;1639123;85;20153;-72
2022/01/05 10:33:06;;;;;;;;;;;;;;;11.24;100.00;97640.88;1666427;85;20225;-72
2022/01/05 10:35:33;;;;;;;;;;;;;;;10.93;100.00;97637.02;1632501;87;21159;-72
2022/01/05 10:38:03;;;;;;;;;;;;;;;10.78;100.00;97640.56;1652568;86;20131;-72
2022/01/05 10:40:32;;;;;;;;;;;;;;;10.91;100.00;97645.13;1634556;87;20104;-72
2022/01/05 10:43:09;;;;;;;;;;;;;;;10.84;100.00;97640.16;1633824;87;20100;-71
2022/01/05 10:45:46;;;;;;;;;;;;;;;10.86;100.00;97643.34;1633010;86;20207;-70
2022/01/05 10:48:16;;;;;;;;;;;;;;;10.79;100.00;97640.27;1634968;87;21733;-71
2022/01/05 10:51:10;;;;;;;;;;;;;;;10.77;100.00;97620.20;1634299;88;20182;-71
2022/01/05 10:53:37;;;;;;;;;;;;;;;10.32;100.00;97638.86;1609501;89;20530;-71
2022/01/05 10:56:04;;;;;;;;;;;;;;;9.53;100.00;97633.81;1609810;89;20232;-69
2022/01/05 10:58:45;;;;;;;;;;;;;;;9.11;100.00;97636.86;1616677;87;20179;-71
2022/01/05 11:01:28;;;;;;;;;;;;;;;8.87;100.00;97633.47;1610382;88;21169;-71
2022/01/05 11:03:54;;;;;;;;;;;;;;;8.57;100.00;97638.14;1602627;88;20119;-72
2022/01/05 11:06:21;;;;;;;;;;;;;;;8.47;100.00;97631.59;1613006;87;20150;-71
2022/01/05 11:09:00;;;;;;;;;;;;;;;8.50;100.00;97636.36;1614896;86;20199;-71
2022/01/05 11:11:47;;;;;;;;;;;;;;;8.45;100.00;97637.77;1634097;86;20180;-69
2022/01/05 11:14:27;;;;;;;;;;;;;;;8.32;100.00;97627.99;1604044;88;20512;-73
2022/01/05 11:17:08;;;;;;;;;;;;;;;8.27;100.00;97632.61;1528822;93;20150;-72
2022/01/05 11:19:42;;;;;;;;;;;;;;;8.22;100.00;97640.14;1512718;92;20221;-70
2022/01/05 11:22:14;;;;;;;;;;;;;;;8.25;100.00;97642.78;1539660;92;20619;-69
2022/01/05 11:24:50;;;;;;;;;;;;;;;8.24;100.00;97644.67;1536460;92;20169;-69
2022/01/05 11:27:22;;;;;;;;;;;;;;;8.22;100.00;97638.02;1552158;91;21151;-70
2022/01/05 11:29:49;;;;;;;;;;;;;;;8.15;100.00;97635.13;1557926;90;20223;-70
2022/01/05 11:32:20;;;;;;;;;;;;;;;8.09;100.00;97632.83;1570245;89;20205;-71
2022/01/05 11:34:52;;;;;;;;;;;;;;;8.03;100.00;97631.27;1573151;89;20196;-69
2022/01/05 11:37:20;;;;;;;;;;;;;;;7.98;100.00;97628.11;1538760;91;20454;-71
2022/01/05 11:39:50;;;;;;;;;;;;;;;7.95;100.00;97627.34;1536997;91;21597;-72
2022/01/05 11:42:35;;;;;;;;;;;;;;;7.91;100.00;97639.16;1564039;90;20158;-71
2022/01/05 11:45:01;;;;;;;;;;;;;;;7.85;100.00;97640.27;1564111;91;20581;-69
2022/01/05 11:47:32;;;;;;;;;;;;;;;7.79;100.00;97645.42;1563381;91;20166;-70
2022/01/05 11:50:26;;;;;;;;;;;;;;;7.75;100.00;97642.25;1556185;91;20170;-71
2022/01/05 11:52:58;;;;;;;;;;;;;;;7.73;100.00;97645.98;1555779;91;21135;-71
2022/01/05 11:55:26;;;;;;;;;;;;;;;7.72;100.00;97648.41;1567722;90;20271;-73
2022/01/05 11:58:14;;;;;;;;;;;;;;;7.72;100.00;97639.61;1553095;91;20304;-71
2022/01/05 12:00:40;;;;;;;;;;;;;;;7.73;100.00;97627.84;1555045;91;20257;-69
2022/01/05 12:03:07;;;;;;;;;;;;;;;7.72;100.00;97621.70;1567658;90;20182;-71
2022/01/05 12:06:05;;;;;;;;;;;;;;;7.67;100.00;97620.97;1565435;91;21173;-72
2022/01/05 12:08:51;;;;;;;;;;;;;;;7.63;100.00;97631.40;1560697;91;20168;-72
2022/01/05 12:11:34;;;;;;;;;;;;;;;7.61;100.00;97637.55;1563093;91;20130;-71
2022/01/05 12:14:06;;;;;;;;;;;;;;;7.56;100.00;97630.92;1570670;90;20143;-72
2022/01/05 12:17:11;;;;;;;;;;;;;;;7.55;100.00;97640.57;1597811;87;20182;-71
2022/01/05 12:19:50;;;;;;;;;;;;;;;7.51;100.00;97631.77;1611449;89;21565;-71
2022/01/05 12:22:18;;;;;;;;;;;;;;;7.45;100.00;97638.78;1612306;87;20120;-70
2022/01/05 12:25:03;;;;;;;;;;;;;;;7.39;100.00;97635.34;1639306;87;20196;-71
2022/01/05 12:27:34;;;;;;;;;;;;;;;7.35;100.00;97640.17;1639208;87;20149;-73
2022/01/05 12:30:03;;;;;;;;;;;;;;;7.29;100.00;97646.89;1616793;87;20182;-72
2022/01/05 12:32:37;;;;;;;;;;;;;;;7.28;100.00;97657.86;1611588;89;21184;-71
2022/01/05 12:35:18;;;;;;;;;;;;;;;7.22;100.00;97650.95;1586239;87;20233;-69
2022/01/05 12:37:58;;;;;;;;;;;;;;;7.18;100.00;97656.06;1633796;87;20605;-74
2022/01/05 12:40:42;;;;;;;;;;;;;;;7.09;100.00;97658.51;1638432;87;20195;-73
2022/01/05 12:43:13;;;;;;;;;;;;;;;7.00;100.00;97660.16;1674211;85;20203;-72
2022/01/05 12:46:00;;;;;;;;;;;;;;;6.95;100.00;97661.53;1672896;85;21163;-72
2022/01/05 12:48:36;;;;;;;;;;;;;;;6.90;100.00;97664.23;1674774;85;20158;-71
2022/01/05 12:51:20;;;;;;;;;;;;;;;6.85;100.00;97668.27;1661705;85;20498;-76
2022/01/05 12:54:00;;;;;;;;;;;;;;;6.82;100.00;97663.48;1615953;88;20244;-72
2022/01/05 12:56:26;;;;;;;;;;;;;;;6.77;100.00;97664.84;1600388;88;20479;-74